createdAt,value
2022-09-25T00:01:37.255Z,95238.16
2022-09-25T00:04:06.406Z,95238.00
2022-09-25T00:06:35.091Z,95234.75
2022-09-25T00:09:06.769Z,95238.03
2022-09-25T00:11:39.220Z,95235.78
2022-09-25T00:14:08.034Z,95225.44
2022-09-25T00:16:36.756Z,95222.00
2022-09-25T00:19:23.151Z,95222.63
2022-09-25T00:21:53.089Z,95219.25
2022-09-25T00:24:22.538Z,95221.84
2022-09-25T00:26:52.821Z,95221.88
2022-09-25T00:29:21.958Z,95222.28
2022-09-25T00:31:50.676Z,95225.34
2022-09-25T00:34:19.347Z,95221.47
2022-09-25T00:36:47.964Z,95216.66
2022-09-25T00:39:16.765Z,95216.06
2022-09-25T00:41:45.593Z,95215.84
2022-09-25T00:44:56.816Z,95204.94
2022-09-25T00:47:48.613Z,95203.72
2022-09-25T00:50:28.048Z,95209.03
2022-09-25T00:53:04.175Z,95202.31
2022-09-25T00:55:35.099Z,95203.53
2022-09-25T00:58:05.154Z,95209.59
2022-09-25T01:00:36.051Z,95204.41
2022-09-25T01:03:06.396Z,95213.47
2022-09-25T01:05:37.903Z,95214.91
2022-09-25T01:08:10.307Z,95212.47
2022-09-25T01:10:39.143Z,95209.44
2022-09-25T01:13:08.524Z,95205.53
2022-09-25T01:15:48.811Z,95199.66
2022-09-25T01:18:32.683Z,95196.03
2022-09-25T01:21:20.468Z,95199.72
2022-09-25T01:24:05.979Z,95197.50
2022-09-25T01:27:28.647Z,95207.63
2022-09-25T01:30:07.324Z,95203.81
2022-09-25T01:32:44.592Z,95202.41
2022-09-25T01:35:19.766Z,95205.03
2022-09-25T01:37:56.627Z,95201.63
2022-09-25T01:40:33.658Z,95188.28
2022-09-25T01:43:12.297Z,95186.66
2022-09-25T01:45:47.420Z,95194.97
2022-09-25T01:48:20.087Z,95195.16
2022-09-25T01:50:52.790Z,95201.22
2022-09-25T01:53:27.222Z,95192.31
2022-09-25T01:56:00.078Z,95194.34
2022-09-25T01:58:32.490Z,95195.78
2022-09-25T02:01:07.956Z,95186.25
2022-09-25T02:03:44.272Z,95193.13
2022-09-25T02:06:17.600Z,95193.31
2022-09-25T02:08:49.791Z,95195.75
2022-09-25T02:11:19.550Z,95189.91
2022-09-25T02:13:51.497Z,95192.34
2022-09-25T02:16:24.113Z,95191.94
2022-09-25T02:19:10.272Z,95196.16
2022-09-25T02:21:49.291Z,95201.84
2022-09-25T02:24:23.141Z,95198.78
2022-09-25T02:26:52.570Z,95196.97
2022-09-25T02:29:21.812Z,95191.47
2022-09-25T02:31:56.756Z,95193.91
2022-09-25T02:34:25.757Z,95197.13
2022-09-25T02:36:54.509Z,95194.91
2022-09-25T02:39:25.877Z,95191.88
2022-09-25T02:42:20.611Z,95190.06
2022-09-25T02:45:08.093Z,95187.06
2022-09-25T02:47:49.196Z,95189.47
2022-09-25T02:50:23.448Z,95181.56
2022-09-25T02:53:00.516Z,95189.88
2022-09-25T02:55:41.563Z,95189.25
2022-09-25T02:58:17.046Z,95189.06
2022-09-25T03:00:49.141Z,95186.81
2022-09-25T03:03:21.585Z,95195.72
2022-09-25T03:05:51.837Z,95193.91
2022-09-25T03:08:42.526Z,95191.47
2022-09-25T03:11:13.673Z,95188.44
2022-09-25T03:13:43.539Z,95187.03
2022-09-25T03:16:17.743Z,95192.09
2022-09-25T03:18:48.475Z,95192.72
2022-09-25T03:21:17.449Z,95191.50
2022-09-25T03:23:46.283Z,95194.34
2022-09-25T03:26:15.310Z,95202.22
2022-09-25T03:28:44.159Z,95193.75
2022-09-25T03:31:13.592Z,95197.81
2022-09-25T03:33:44.360Z,95196.16
2022-09-25T03:36:16.551Z,95199.44
2022-09-25T03:38:46.403Z,95200.84
2022-09-25T03:41:18.039Z,95209.72
2022-09-25T03:43:48.874Z,95206.31
2022-09-25T03:46:17.804Z,95201.84
2022-09-25T03:48:46.751Z,95205.66
2022-09-25T03:51:17.069Z,95199.13
2022-09-25T03:53:45.995Z,95202.69
2022-09-25T03:56:17.155Z,95195.94
2022-09-25T03:58:45.950Z,95203.75
2022-09-25T04:01:14.910Z,95202.88
2022-09-25T04:03:47.515Z,95198.50
2022-09-25T04:06:19.484Z,95200.69
2022-09-25T04:08:50.181Z,95191.22
2022-09-25T04:11:21.141Z,95185.75
2022-09-25T04:13:50.071Z,95195.50
2022-09-25T04:16:21.355Z,95194.56
2022-09-25T04:18:51.496Z,95191.34
2022-09-25T04:21:21.552Z,95197.44
2022-09-25T04:24:04.108Z,95197.28
2022-09-25T04:26:33.117Z,95207.78
2022-09-25T04:29:02.347Z,95203.34
2022-09-25T04:31:32.013Z,95211.03
2022-09-25T04:34:00.114Z,95206.84
2022-09-25T04:36:30.354Z,95214.16
2022-09-25T04:38:59.074Z,95203.47
2022-09-25T04:41:27.969Z,95207.50
2022-09-25T04:43:56.674Z,95212.78
2022-09-25T04:46:25.418Z,95204.66
2022-09-25T04:48:54.337Z,95203.25
2022-09-25T04:51:23.371Z,95207.31
2022-09-25T04:53:54.133Z,95204.47
2022-09-25T04:56:23.012Z,95212.31
2022-09-25T04:58:51.975Z,95204.84
2022-09-25T05:01:22.131Z,95207.06
2022-09-25T05:03:53.722Z,95207.84
2022-09-25T05:06:23.250Z,95202.94
2022-09-25T05:08:53.508Z,95209.56
2022-09-25T05:11:22.393Z,95207.81
2022-09-25T05:13:52.081Z,95204.97
2022-09-25T05:16:21.067Z,95202.38
2022-09-25T05:18:50.086Z,95206.69
2022-09-25T05:21:18.774Z,95212.81
2022-09-25T05:23:47.473Z,95216.13
2022-09-25T05:26:17.688Z,95213.91
2022-09-25T05:28:50.299Z,95220.13
2022-09-25T05:31:19.549Z,95214.72
2022-09-25T05:33:48.776Z,95215.66
2022-09-25T05:36:18.999Z,95207.16
2022-09-25T05:38:48.282Z,95202.41
2022-09-25T05:41:18.796Z,95215.50
2022-09-25T05:43:48.556Z,95218.22
2022-09-25T05:46:17.674Z,95223.06
2022-09-25T05:48:46.458Z,95217.91
2022-09-25T05:51:15.288Z,95210.03
2022-09-25T05:53:43.943Z,95215.25
2022-09-25T05:56:12.622Z,95209.22
2022-09-25T05:58:42.790Z,95202.00
2022-09-25T06:01:11.431Z,95202.94
2022-09-25T06:03:40.310Z,95207.56
2022-09-25T06:06:09.129Z,95212.50
2022-09-25T06:08:37.890Z,95210.75
2022-09-25T06:11:07.987Z,95211.03
2022-09-25T06:13:37.159Z,95210.91
2022-09-25T06:16:19.657Z,95217.34
2022-09-25T06:18:48.560Z,95225.28
2022-09-25T06:21:17.337Z,95227.91
2022-09-25T06:23:46.933Z,95221.22
2022-09-25T06:26:15.744Z,95215.50
2022-09-25T06:28:44.475Z,95225.06
2022-09-25T06:31:14.648Z,95222.16
2022-09-25T06:33:44.013Z,95228.59
2022-09-25T06:36:12.922Z,95232.56
2022-09-25T06:38:41.657Z,95230.09
2022-09-25T06:41:10.535Z,95234.00
2022-09-25T06:43:39.462Z,95239.38
2022-09-25T06:46:08.410Z,95243.47
2022-09-25T06:48:38.679Z,95246.06
2022-09-25T06:51:08.945Z,95243.88
2022-09-25T06:53:38.007Z,95252.72
2022-09-25T06:56:06.914Z,95250.44
2022-09-25T06:58:36.295Z,95250.94
2022-09-25T07:01:09.893Z,95247.00
2022-09-25T07:03:45.610Z,95250.34
2022-09-25T07:06:16.561Z,95256.28
2022-09-25T07:08:48.406Z,95257.28
2022-09-25T07:11:19.951Z,95265.97
2022-09-25T07:13:55.439Z,95260.13
2022-09-25T07:16:25.949Z,95267.88
2022-09-25T07:18:59.853Z,95266.00
2022-09-25T07:21:30.895Z,95274.06
2022-09-25T07:24:00.027Z,95259.19
2022-09-25T07:26:30.896Z,95252.38
2022-09-25T07:29:02.006Z,95251.69
2022-09-25T07:31:33.154Z,95234.88
2022-09-25T07:34:09.581Z,95241.41
2022-09-25T07:36:39.561Z,95233.16
2022-09-25T07:39:08.738Z,95230.97
2022-09-25T07:41:38.117Z,95230.75
2022-09-25T07:44:27.324Z,95213.28
2022-09-25T07:46:56.012Z,95220.78
2022-09-25T07:49:26.138Z,95217.00
2022-09-25T07:51:54.897Z,95216.75
2022-09-25T07:54:23.924Z,95213.00
2022-09-25T07:56:52.954Z,95204.47
2022-09-25T07:59:21.987Z,95202.00
2022-09-25T08:01:53.908Z,95206.75
2022-09-25T08:04:23.270Z,95210.63
2022-09-25T08:06:53.603Z,95196.59
2022-09-25T08:09:22.560Z,95186.72
2022-09-25T08:11:51.986Z,95189.47
2022-09-25T08:14:26.502Z,95180.97
2022-09-25T08:16:56.229Z,95178.16
2022-09-25T08:19:25.140Z,95176.59
2022-09-25T08:21:55.631Z,95180.03
2022-09-25T08:24:24.613Z,95161.19
2022-09-25T08:26:53.631Z,95168.09
2022-09-25T08:29:23.274Z,95167.09
2022-09-25T08:31:52.190Z,95167.72
2022-09-25T08:34:40.135Z,95170.06
2022-09-25T08:37:11.412Z,95166.66
2022-09-25T08:39:40.350Z,95171.34
2022-09-25T08:42:19.793Z,95169.25
2022-09-25T08:45:22.149Z,95166.38
2022-09-25T08:48:26.392Z,95156.56
2022-09-25T08:50:55.267Z,95144.00
2022-09-25T08:53:27.625Z,95145.88
2022-09-25T08:56:14.353Z,95149.97
2022-09-25T08:58:46.639Z,95142.47
2022-09-25T09:01:18.688Z,95146.06
2022-09-25T09:03:53.825Z,95147.91
2022-09-25T09:06:25.953Z,95138.25
2022-09-25T09:09:01.629Z,95130.84
2022-09-25T09:11:36.453Z,95141.41
2022-09-25T09:14:07.902Z,95128.44
2022-09-25T09:16:43.815Z,95120.91
2022-09-25T09:19:14.715Z,95124.81
2022-09-25T09:21:48.853Z,95118.22
2022-09-25T09:24:25.579Z,95119.59
2022-09-25T09:27:18.101Z,95111.84
2022-09-25T09:29:59.313Z,95112.91
2022-09-25T09:32:48.705Z,95114.19
2022-09-25T09:35:33.601Z,95108.78
2022-09-25T09:38:15.175Z,95109.06
2022-09-25T09:41:07.381Z,95109.41
2022-09-25T09:43:48.109Z,95104.84
2022-09-25T09:46:23.491Z,95107.69
2022-09-25T09:49:04.857Z,95109.50
2022-09-25T09:51:38.613Z,95099.97
2022-09-25T09:54:14.878Z,95095.28
2022-09-25T09:56:50.082Z,95073.16
2022-09-25T09:59:22.897Z,95077.28
2022-09-25T10:02:01.162Z,95091.63
2022-09-25T10:04:35.663Z,95089.78
2022-09-25T10:07:08.021Z,95088.66
2022-09-25T10:09:37.450Z,95074.59
2022-09-25T10:12:14.665Z,95071.63
2022-09-25T10:14:47.382Z,95069.47
2022-09-25T10:17:17.182Z,95069.47
2022-09-25T10:19:50.521Z,95065.28
2022-09-25T10:22:22.564Z,95061.63
2022-09-25T10:24:54.139Z,95047.28
2022-09-25T10:27:29.505Z,95048.91
2022-09-25T10:30:21.975Z,95049.28
2022-09-25T10:33:02.562Z,95038.63
2022-09-25T10:35:41.759Z,95040.09
2022-09-25T10:38:26.533Z,95052.31
2022-09-25T10:41:03.215Z,95062.63
2022-09-25T10:43:33.787Z,95044.63
2022-09-25T10:46:15.327Z,95046.88
2022-09-25T10:49:01.837Z,95045.00
2022-09-25T10:51:32.659Z,95046.16
2022-09-25T10:54:13.670Z,95042.50
2022-09-25T10:56:44.286Z,95039.19
2022-09-25T10:59:20.448Z,95036.72
2022-09-25T11:01:51.704Z,95030.28
2022-09-25T11:04:24.875Z,95024.13
2022-09-25T11:06:57.502Z,95021.66
2022-09-25T11:09:28.572Z,95018.47
2022-09-25T11:12:09.468Z,95012.34
2022-09-25T11:14:55.481Z,95007.31
2022-09-25T11:17:33.528Z,95022.97
2022-09-25T11:20:21.339Z,95006.72
2022-09-25T11:22:55.188Z,95007.06
2022-09-25T11:25:28.281Z,95000.03
2022-09-25T11:28:04.398Z,94994.84
2022-09-25T11:30:44.546Z,95000.72
2022-09-25T11:33:23.307Z,94998.81
2022-09-25T11:35:58.352Z,94996.59
2022-09-25T11:38:55.766Z,94982.94
2022-09-25T11:41:32.706Z,94982.25
2022-09-25T11:44:22.775Z,94981.19
2022-09-25T11:47:02.270Z,94978.47
2022-09-25T11:49:34.631Z,94971.34
2022-09-25T11:52:40.394Z,94968.41
2022-09-25T11:55:45.994Z,94956.47
2022-09-25T11:58:33.536Z,94964.13
2022-09-25T12:01:15.284Z,94961.38
2022-09-25T12:04:12.864Z,94957.19
2022-09-25T12:07:12.662Z,94949.63
2022-09-25T12:09:55.451Z,94952.09
2022-09-25T12:12:32.487Z,94948.59
2022-09-25T12:15:15.009Z,94945.31
2022-09-25T12:17:52.386Z,94940.31
2022-09-25T12:20:32.434Z,94932.59
2022-09-25T12:23:16.174Z,94929.41
2022-09-25T12:26:06.721Z,94930.47
2022-09-25T12:28:46.994Z,94939.84
2022-09-25T12:31:25.155Z,94932.72
2022-09-25T12:34:01.456Z,94929.66
2022-09-25T12:36:37.883Z,94923.06
2022-09-25T12:39:26.700Z,94918.78
2022-09-25T12:42:07.551Z,94915.84
2022-09-25T12:44:47.445Z,94902.97
2022-09-25T12:47:25.104Z,94896.66
2022-09-25T12:49:59.948Z,94890.75
2022-09-25T12:52:36.221Z,94890.91
2022-09-25T12:55:13.884Z,94888.34
2022-09-25T12:57:48.439Z,94877.56
2022-09-25T13:00:21.414Z,94871.06
2022-09-25T13:02:57.384Z,94876.16
2022-09-25T13:05:31.702Z,94846.91
2022-09-25T13:08:11.326Z,94870.25
2022-09-25T13:10:43.960Z,94869.63
2022-09-25T13:13:19.506Z,94860.09
2022-09-25T13:15:52.438Z,94857.13
2022-09-25T13:18:23.546Z,94851.91
2022-09-25T13:20:54.205Z,94847.97
2022-09-25T13:23:32.654Z,94850.22
2022-09-25T13:26:10.697Z,94852.84
2022-09-25T13:28:55.329Z,94843.50
2022-09-25T13:31:27.531Z,94837.50
2022-09-25T13:34:04.035Z,94837.16
2022-09-25T13:36:37.458Z,94831.59
2022-09-25T13:39:36.001Z,94835.91
2022-09-25T13:42:07.839Z,94840.72
2022-09-25T13:45:06.463Z,94838.00
2022-09-25T13:47:56.853Z,94843.38
2022-09-25T13:50:37.818Z,94838.13
2022-09-25T13:53:32.217Z,94838.31
2022-09-25T13:56:23.313Z,94839.28
2022-09-25T13:59:23.773Z,94831.84
2022-09-25T14:01:55.342Z,94833.56
2022-09-25T14:04:33.454Z,94830.13
2022-09-25T14:07:20.622Z,94831.72
2022-09-25T14:09:55.101Z,94832.16
2022-09-25T14:12:30.477Z,94826.31
2022-09-25T14:15:06.173Z,94824.84
2022-09-25T14:17:38.283Z,94824.53
2022-09-25T14:20:20.334Z,94822.31
2022-09-25T14:22:56.203Z,94832.28
2022-09-25T14:25:33.252Z,94823.34
2022-09-25T14:28:05.375Z,94827.53
2022-09-25T14:30:35.015Z,94828.84
2022-09-25T14:33:22.833Z,94828.81
2022-09-25T14:36:01.797Z,94827.75
2022-09-25T14:38:51.238Z,94825.03
2022-09-25T14:41:49.589Z,94821.69
2022-09-25T14:44:40.465Z,94825.47
2022-09-25T14:47:11.859Z,94818.75
2022-09-25T14:49:43.787Z,94816.97
2022-09-25T14:52:15.789Z,94834.06
2022-09-25T14:54:47.874Z,94827.38
2022-09-25T14:57:23.288Z,94821.59
2022-09-25T14:59:59.191Z,94829.50
2022-09-25T15:02:34.524Z,94828.19
2022-09-25T15:05:19.260Z,94823.75
2022-09-25T15:07:48.892Z,94822.78
2022-09-25T15:10:29.947Z,94821.63
2022-09-25T15:13:09.519Z,94823.50
2022-09-25T15:15:41.646Z,94812.19
2022-09-25T15:18:14.300Z,94814.69
2022-09-25T15:20:49.611Z,94816.91
2022-09-25T15:23:22.628Z,94817.75
2022-09-25T15:25:52.892Z,94816.66
2022-09-25T15:28:24.797Z,94825.47
2022-09-25T15:31:00.428Z,94821.28
2022-09-25T15:33:31.334Z,94813.41
2022-09-25T15:36:01.971Z,94815.75
2022-09-25T15:38:32.502Z,94814.88
2022-09-25T15:41:01.606Z,94818.78
2022-09-25T15:43:31.499Z,94819.78
2022-09-25T15:46:37.779Z,94822.03
2022-09-25T15:49:07.633Z,94817.97
2022-09-25T15:51:38.422Z,94819.28
2022-09-25T15:54:30.987Z,94811.66
2022-09-25T15:57:01.947Z,94801.41
2022-09-25T15:59:34.785Z,94808.09
2022-09-25T16:02:36.707Z,94809.25
2022-09-25T16:05:10.265Z,94805.97
2022-09-25T16:07:41.081Z,94813.63
2022-09-25T16:10:32.255Z,94812.59
2022-09-25T16:13:01.715Z,94822.19
2022-09-25T16:15:46.230Z,94826.69
2022-09-25T16:18:40.837Z,94830.34
2022-09-25T16:21:24.385Z,94833.88
2022-09-25T16:24:02.386Z,94830.06
2022-09-25T16:26:38.375Z,94833.91
2022-09-25T16:29:22.780Z,94835.50
2022-09-25T16:31:53.798Z,94836.25
2022-09-25T16:34:28.156Z,94839.88
2022-09-25T16:37:00.924Z,94841.19
2022-09-25T16:39:33.054Z,94843.00
2022-09-25T16:42:26.667Z,94834.31
2022-09-25T16:45:05.475Z,94841.44
2022-09-25T16:47:35.255Z,94840.06
2022-09-25T16:50:06.136Z,94842.53
2022-09-25T16:52:36.053Z,94840.50
2022-09-25T16:55:09.362Z,94835.81
2022-09-25T16:57:43.810Z,94844.22
2022-09-25T17:00:18.370Z,94842.13
2022-09-25T17:03:14.056Z,94851.56
2022-09-25T17:05:45.308Z,94843.13
2022-09-25T17:08:18.895Z,94847.78
2022-09-25T17:10:53.986Z,94851.63
2022-09-25T17:13:28.571Z,94847.72
2022-09-25T17:15:57.600Z,94847.25
2022-09-25T17:18:51.426Z,94849.47
2022-09-25T17:21:21.525Z,94853.81
2022-09-25T17:23:50.685Z,94846.13
2022-09-25T17:26:45.032Z,94852.28
2022-09-25T17:29:14.451Z,94852.59
2022-09-25T17:31:43.373Z,94860.88
2022-09-25T17:34:37.572Z,94864.38
2022-09-25T17:37:07.906Z,94867.91
2022-09-25T17:39:36.612Z,94863.41
2022-09-25T17:42:05.804Z,94866.63
2022-09-25T17:44:34.560Z,94868.25
2022-09-25T17:47:03.145Z,94871.47
2022-09-25T17:49:32.550Z,94874.72
2022-09-25T17:52:01.253Z,94873.66
2022-09-25T17:54:31.645Z,94876.91
2022-09-25T17:57:00.359Z,94885.72
2022-09-25T17:59:28.976Z,94885.16
2022-09-25T18:01:59.787Z,94893.94
2022-09-25T18:04:28.905Z,94905.06
2022-09-25T18:06:57.742Z,94902.97
2022-09-25T18:09:26.334Z,94902.44
2022-09-25T18:11:56.318Z,94900.53
2022-09-25T18:14:26.298Z,94898.16
2022-09-25T18:16:55.455Z,94900.53
2022-09-25T18:19:41.489Z,94903.16
2022-09-25T18:22:19.627Z,94905.81
2022-09-25T18:24:52.916Z,94907.88
2022-09-25T18:27:23.465Z,94894.00
2022-09-25T18:29:52.348Z,94902.69
2022-09-25T18:32:21.211Z,94901.06
2022-09-25T18:34:49.917Z,94906.78
2022-09-25T18:37:18.911Z,94904.47
2022-09-25T18:39:48.235Z,94902.06
2022-09-25T18:42:17.054Z,94905.56
2022-09-25T18:44:47.558Z,94902.47
2022-09-25T18:47:16.407Z,94896.88
2022-09-25T18:49:45.568Z,94899.00
2022-09-25T18:52:14.473Z,94897.19
2022-09-25T18:54:43.306Z,94903.31
2022-09-25T18:57:12.816Z,94907.34
2022-09-25T18:59:41.876Z,94917.16
2022-09-25T19:02:21.035Z,94918.25
2022-09-25T19:04:51.433Z,94910.72
2022-09-25T19:07:21.051Z,94905.19
2022-09-25T19:09:50.052Z,94913.44
2022-09-25T19:12:19.470Z,94919.00
2022-09-25T19:14:49.087Z,94906.25
2022-09-25T19:17:20.619Z,94916.84
2022-09-25T19:19:49.247Z,94912.81
2022-09-25T19:22:21.154Z,94911.69
2022-09-25T19:24:51.389Z,94914.41
2022-09-25T19:27:20.854Z,94917.22
2022-09-25T19:29:49.632Z,94927.25
2022-09-25T19:32:20.394Z,94920.31
2022-09-25T19:34:50.508Z,94929.91
2022-09-25T19:37:19.959Z,94925.03
2022-09-25T19:40:06.135Z,94928.75
2022-09-25T19:42:37.445Z,94930.25
2022-09-25T19:45:07.245Z,94932.09
2022-09-25T19:47:37.657Z,94932.41
2022-09-25T19:50:08.994Z,94927.28
2022-09-25T19:52:37.809Z,94925.09
2022-09-25T19:55:07.379Z,94919.28
2022-09-25T19:57:36.923Z,94928.75
2022-09-25T20:00:06.928Z,94924.97
2022-09-25T20:02:39.140Z,94923.34
2022-09-25T20:05:10.616Z,94928.56
2022-09-25T20:07:39.371Z,94929.50
2022-09-25T20:10:08.317Z,94926.06
2022-09-25T20:12:37.052Z,94933.41
2022-09-25T20:15:06.305Z,94923.28
2022-09-25T20:17:35.067Z,94921.50
2022-09-25T20:20:05.635Z,94924.47
2022-09-25T20:22:34.591Z,94921.66
2022-09-25T20:25:03.339Z,94930.72
2022-09-25T20:27:32.595Z,94919.47
2022-09-25T20:30:01.307Z,94923.47
2022-09-25T20:32:32.150Z,94922.13
2022-09-25T20:35:00.955Z,94927.38
2022-09-25T20:37:31.256Z,94925.78
2022-09-25T20:40:00.202Z,94928.53
2022-09-25T20:42:28.934Z,94926.97
2022-09-25T20:44:57.639Z,94925.31
2022-09-25T20:47:29.507Z,94919.28
2022-09-25T20:49:58.448Z,94925.00
2022-09-25T20:52:27.196Z,94919.94
2022-09-25T20:54:57.270Z,94912.66
2022-09-25T20:57:26.014Z,94914.81
2022-09-25T20:59:54.775Z,94929.06
2022-09-25T21:02:24.875Z,94927.88
2022-09-25T21:04:53.638Z,94921.47
2022-09-25T21:07:22.529Z,94931.19
2022-09-25T21:09:51.207Z,94929.88
2022-09-25T21:12:21.815Z,94921.56
2022-09-25T21:14:51.118Z,94918.34
2022-09-25T21:17:19.964Z,94919.53
2022-09-25T21:19:48.711Z,94914.16
2022-09-25T21:22:17.325Z,94925.16
2022-09-25T21:24:45.987Z,94921.38
2022-09-25T21:27:15.017Z,94904.84
2022-09-25T21:29:45.124Z,94906.59
2022-09-25T21:32:13.948Z,94896.63
2022-09-25T21:34:42.769Z,94892.13
2022-09-25T21:37:11.499Z,94893.28
2022-09-25T21:39:40.864Z,94884.59
2022-09-25T21:42:09.646Z,94880.41
2022-09-25T21:44:39.139Z,94884.91
2022-09-25T21:47:09.423Z,94885.25
2022-09-25T21:49:38.648Z,94886.19
2022-09-25T21:52:07.466Z,94881.78
2022-09-25T21:54:36.343Z,94876.88
2022-09-25T21:57:05.473Z,94869.41
2022-09-25T21:59:34.243Z,94866.19
2022-09-25T22:02:03.003Z,94872.78
2022-09-25T22:04:33.175Z,94870.59
2022-09-25T22:07:02.145Z,94867.16
2022-09-25T22:09:31.200Z,94868.03
2022-09-25T22:11:59.874Z,94876.72
2022-09-25T22:14:28.632Z,94870.53
2022-09-25T22:16:57.475Z,94868.03
2022-09-25T22:19:28.476Z,94869.72
2022-09-25T22:22:00.134Z,94875.44
2022-09-25T22:24:29.316Z,94888.69
2022-09-25T22:26:58.055Z,94884.44
2022-09-25T22:29:27.738Z,94884.44
2022-09-25T22:31:56.400Z,94887.16
2022-09-25T22:34:26.583Z,94874.72
2022-09-25T22:36:59.463Z,94876.31
2022-09-25T22:39:31.000Z,94867.00
2022-09-25T22:41:59.822Z,94870.59
2022-09-25T22:44:28.643Z,94866.34
2022-09-25T22:46:57.503Z,94856.31
2022-09-25T22:49:26.496Z,94874.69
2022-09-25T22:51:55.215Z,94864.88
2022-09-25T22:54:23.818Z,94875.25
2022-09-25T22:56:54.170Z,94867.38
2022-09-25T22:59:22.768Z,94868.06
2022-09-25T23:01:53.868Z,94867.13
2022-09-25T23:04:24.938Z,94878.56
2022-09-25T23:06:54.200Z,94864.53
2022-09-25T23:09:25.082Z,94862.56
2022-09-25T23:11:55.563Z,94854.75
2022-09-25T23:14:26.608Z,94852.00
2022-09-25T23:16:56.302Z,94855.78
2022-09-25T23:19:25.996Z,94854.50
2022-09-25T23:21:55.415Z,94850.00
2022-09-25T23:24:24.558Z,94842.06
2022-09-25T23:26:55.193Z,94847.75
2022-09-25T23:29:24.422Z,94848.63
2022-09-25T23:31:53.244Z,94852.66
2022-09-25T23:34:22.336Z,94845.75
2022-09-25T23:36:51.104Z,94852.09
2022-09-25T23:39:21.180Z,94846.78
2022-09-25T23:41:50.288Z,94853.22
2022-09-25T23:44:20.364Z,94857.41
2022-09-25T23:46:49.073Z,94845.75
2022-09-25T23:49:17.858Z,94843.97
2022-09-25T23:51:48.282Z,94844.53
2022-09-25T23:54:18.522Z,94831.19
2022-09-25T23:56:47.372Z,94833.13
2022-09-25T23:59:16.339Z,94827.81
